createdAt,value
2018-04-22T00:00:28.085Z,16.37
2018-04-22T00:01:28.043Z,16.36
2018-04-22T00:02:28.008Z,16.41
2018-04-22T00:03:27.963Z,16.41
2018-04-22T00:04:27.925Z,16.32
2018-04-22T00:05:27.880Z,16.31
2018-04-22T00:06:27.849Z,16.37
2018-04-22T00:07:27.801Z,16.28
2018-04-22T00:08:27.758Z,16.18
2018-04-22T00:09:27.719Z,16.26
2018-04-22T00:10:27.680Z,16.29
2018-04-22T00:11:27.638Z,16.25
2018-04-22T00:12:27.618Z,16.32
2018-04-22T00:13:27.555Z,16.29
2018-04-22T00:14:27.533Z,16.28
2018-04-22T00:15:27.482Z,16.29
2018-04-22T00:16:27.436Z,16.21
2018-04-22T00:17:27.393Z,16.17
2018-04-22T00:18:27.353Z,16.09
2018-04-22T00:19:27.310Z,16.09
2018-04-22T00:20:27.274Z,16.25
2018-04-22T00:21:27.229Z,16.21
2018-04-22T00:22:27.196Z,16.18
2018-04-22T00:23:27.149Z,16.24
2018-04-22T00:24:27.108Z,16.16
2018-04-22T00:25:27.065Z,16.21
2018-04-22T00:26:27.026Z,16.16
2018-04-22T00:27:26.986Z,16.21
2018-04-22T00:28:26.944Z,16.13
2018-04-22T00:29:26.903Z,16.13
2018-04-22T00:30:26.861Z,16.17
2018-04-22T00:31:26.820Z,16.08
2018-04-22T00:32:26.780Z,16.16
2018-04-22T00:33:26.741Z,16.06
2018-04-22T00:34:26.707Z,16.03
2018-04-22T00:35:26.660Z,16.03
2018-04-22T00:36:26.618Z,16.00
2018-04-22T00:37:26.579Z,16.03
2018-04-22T00:38:26.538Z,15.96
2018-04-22T00:39:26.520Z,16.08
2018-04-22T00:40:26.463Z,16.03
2018-04-22T00:41:26.413Z,15.96
2018-04-22T00:42:26.372Z,15.90
2018-04-22T00:43:26.348Z,15.94
2018-04-22T00:44:26.291Z,15.98
2018-04-22T00:45:26.249Z,15.85
2018-04-22T00:46:26.208Z,15.92
2018-04-22T00:47:26.178Z,15.94
2018-04-22T00:48:26.128Z,15.85
2018-04-22T00:49:26.090Z,15.83
2018-04-22T00:50:26.047Z,15.81
2018-04-22T00:51:26.009Z,15.78
2018-04-22T00:52:25.965Z,15.76
2018-04-22T00:53:25.927Z,15.80
2018-04-22T00:54:25.886Z,15.78
2018-04-22T00:55:25.840Z,15.83
2018-04-22T00:56:25.803Z,15.83
2018-04-22T00:57:25.765Z,15.67
2018-04-22T00:58:25.719Z,15.69
2018-04-22T00:59:25.678Z,15.65
2018-04-22T01:00:25.637Z,15.66
2018-04-22T01:01:25.600Z,15.73
2018-04-22T01:02:25.556Z,15.76
2018-04-22T01:03:25.513Z,15.75
2018-04-22T01:04:25.473Z,15.65
2018-04-22T01:05:25.433Z,15.72
2018-04-22T01:06:25.390Z,15.69
2018-04-22T01:07:25.349Z,15.70
2018-04-22T01:08:25.332Z,15.66
2018-04-22T01:09:25.267Z,15.62
2018-04-22T01:10:25.232Z,15.62
2018-04-22T01:11:25.189Z,15.60
2018-04-22T01:12:25.146Z,15.52
2018-04-22T01:13:25.104Z,15.59
2018-04-22T01:14:25.062Z,15.54
2018-04-22T01:15:25.024Z,15.57
2018-04-22T01:16:25.031Z,15.62
2018-04-22T01:17:24.940Z,15.51
2018-04-22T01:18:24.924Z,15.51
2018-04-22T01:19:24.856Z,15.62
2018-04-22T01:20:24.829Z,15.52
2018-04-22T01:21:24.777Z,15.51
2018-04-22T01:22:24.735Z,15.51
2018-04-22T01:23:24.698Z,15.44
2018-04-22T01:24:24.655Z,15.43
2018-04-22T01:25:24.614Z,15.45
2018-04-22T01:26:24.574Z,15.47
2018-04-22T01:27:24.544Z,15.44
2018-04-22T01:28:24.498Z,15.35
2018-04-22T01:29:24.449Z,15.36
2018-04-22T01:30:24.411Z,15.35
2018-04-22T01:31:24.368Z,15.33
2018-04-22T01:32:24.327Z,15.37
2018-04-22T01:33:24.290Z,15.41
2018-04-22T01:34:24.251Z,15.36
2018-04-22T01:35:24.204Z,15.35
2018-04-22T01:36:24.165Z,15.35
2018-04-22T01:37:24.123Z,15.32
2018-04-22T01:38:24.080Z,15.27
2018-04-22T01:39:24.041Z,15.30
2018-04-22T01:40:24.060Z,15.30
2018-04-22T01:41:23.956Z,15.33
2018-04-22T01:42:23.922Z,15.32
2018-04-22T01:43:23.876Z,15.22
2018-04-22T01:44:23.835Z,15.30
2018-04-22T01:45:23.803Z,15.23
2018-04-22T01:46:23.753Z,15.19
2018-04-22T01:47:23.711Z,15.19
2018-04-22T01:48:23.673Z,15.15
2018-04-22T01:49:23.629Z,15.26
2018-04-22T01:50:23.588Z,15.26
2018-04-22T01:51:23.547Z,15.15
2018-04-22T01:52:23.504Z,15.27
2018-04-22T01:53:23.463Z,15.22
2018-04-22T01:54:23.423Z,15.22
2018-04-22T01:55:23.380Z,15.25
2018-04-22T01:56:23.342Z,15.25
2018-04-22T01:57:23.301Z,15.19
2018-04-22T01:58:23.258Z,15.19
2018-04-22T01:59:23.216Z,15.14
2018-04-22T02:00:23.174Z,15.07
2018-04-22T02:01:23.131Z,15.14
2018-04-22T02:02:23.092Z,15.11
2018-04-22T02:03:23.051Z,15.10
2018-04-22T02:04:23.007Z,15.12
2018-04-22T02:05:22.966Z,15.10
2018-04-22T02:06:22.925Z,15.08
2018-04-22T02:07:22.888Z,15.14
2018-04-22T02:08:22.843Z,15.14
2018-04-22T02:09:22.802Z,15.15
2018-04-22T02:10:22.760Z,15.11
2018-04-22T02:11:22.720Z,15.12
2018-04-22T02:12:22.678Z,15.10
2018-04-22T02:13:22.636Z,15.10
2018-04-22T02:14:22.594Z,15.07
2018-04-22T02:15:22.553Z,15.10
2018-04-22T02:16:22.515Z,15.19
2018-04-22T02:17:22.469Z,15.14
2018-04-22T02:18:22.432Z,15.18
2018-04-22T02:19:22.388Z,15.23
2018-04-22T02:20:22.346Z,15.22
2018-04-22T02:21:22.305Z,15.15
2018-04-22T02:22:22.264Z,15.15
2018-04-22T02:23:22.224Z,15.14
2018-04-22T02:24:22.181Z,15.23
2018-04-22T02:25:22.139Z,15.18
2018-04-22T02:26:22.098Z,15.19
2018-04-22T02:27:22.058Z,15.18
2018-04-22T02:28:22.018Z,15.17
2018-04-22T02:29:21.976Z,15.18
2018-04-22T02:30:21.934Z,15.19
2018-04-22T02:31:21.895Z,15.25
2018-04-22T02:32:21.853Z,15.19
2018-04-22T02:33:21.810Z,15.14
2018-04-22T02:34:21.768Z,15.15
2018-04-22T02:35:21.726Z,15.10
2018-04-22T02:36:21.685Z,15.23
2018-04-22T02:37:21.647Z,15.19
2018-04-22T02:38:21.606Z,15.11
2018-04-22T02:39:21.561Z,15.14
2018-04-22T02:40:21.520Z,15.17
2018-04-22T02:41:21.477Z,15.11
2018-04-22T02:42:21.437Z,15.07
2018-04-22T02:43:21.395Z,15.02
2018-04-22T02:44:21.355Z,14.99
2018-04-22T02:45:21.313Z,15.02
2018-04-22T02:46:21.273Z,15.02
2018-04-22T02:47:21.229Z,15.00
2018-04-22T02:48:21.188Z,15.04
2018-04-22T02:49:21.146Z,15.05
2018-04-22T02:50:21.105Z,15.07
2018-04-22T02:51:21.067Z,15.04
2018-04-22T02:52:21.027Z,15.02
2018-04-22T02:53:20.982Z,15.00
2018-04-22T02:54:20.942Z,15.02
2018-04-22T02:55:20.897Z,14.96
2018-04-22T02:56:20.857Z,14.97
2018-04-22T02:57:20.816Z,14.90
2018-04-22T02:58:20.775Z,14.90
2018-04-22T02:59:20.731Z,14.86
2018-04-22T03:00:20.690Z,14.82
2018-04-22T03:01:20.650Z,14.81
2018-04-22T03:02:20.608Z,14.81
2018-04-22T03:03:20.571Z,14.78
2018-04-22T03:04:20.527Z,14.90
2018-04-22T03:05:20.483Z,14.86
2018-04-22T03:06:20.444Z,14.81
2018-04-22T03:07:20.401Z,14.85
2018-04-22T03:08:20.362Z,14.79
2018-04-22T03:09:20.315Z,14.73
2018-04-22T03:10:20.275Z,14.73
2018-04-22T03:11:20.234Z,14.73
2018-04-22T03:12:20.195Z,14.73
2018-04-22T03:13:20.151Z,14.79
2018-04-22T03:14:20.110Z,14.71
2018-04-22T03:15:20.071Z,14.73
2018-04-22T03:16:20.029Z,14.78
2018-04-22T03:17:19.982Z,14.82
2018-04-22T03:18:19.942Z,14.79
2018-04-22T03:19:19.902Z,14.79
2018-04-22T03:20:19.860Z,14.70
2018-04-22T03:21:19.819Z,14.71
2018-04-22T03:22:19.810Z,14.71
2018-04-22T03:23:19.735Z,14.68
2018-04-22T03:24:19.694Z,14.66
2018-04-22T03:25:19.656Z,14.71
2018-04-22T03:26:19.612Z,14.62
2018-04-22T03:27:19.575Z,14.67
2018-04-22T03:28:19.530Z,14.51
2018-04-22T03:29:19.485Z,14.59
2018-04-22T03:30:19.445Z,14.66
2018-04-22T03:31:19.410Z,14.56
2018-04-22T03:32:19.359Z,14.45
2018-04-22T03:33:19.319Z,14.44
2018-04-22T03:34:19.279Z,14.40
2018-04-22T03:35:19.239Z,14.48
2018-04-22T03:36:19.195Z,14.44
2018-04-22T03:37:19.152Z,14.52
2018-04-22T03:38:19.114Z,14.51
2018-04-22T03:39:19.071Z,14.51
2018-04-22T03:40:19.030Z,14.49
2018-04-22T03:41:18.985Z,14.40
2018-04-22T03:42:18.951Z,14.49
2018-04-22T03:43:18.910Z,14.49
2018-04-22T03:44:18.869Z,14.43
2018-04-22T03:45:18.820Z,14.40
2018-04-22T03:46:18.780Z,14.40
2018-04-22T03:47:18.746Z,14.43
2018-04-22T03:48:18.696Z,14.34
2018-04-22T03:49:18.659Z,14.37
2018-04-22T03:50:18.621Z,14.38
2018-04-22T03:51:18.572Z,14.37
2018-04-22T03:52:18.530Z,14.37
2018-04-22T03:53:18.494Z,14.33
2018-04-22T03:54:18.452Z,14.40
2018-04-22T03:55:18.405Z,14.36
2018-04-22T03:56:18.365Z,14.38
2018-04-22T03:57:18.321Z,14.30
2018-04-22T03:58:18.286Z,14.36
2018-04-22T03:59:18.237Z,14.33
2018-04-22T04:00:18.196Z,14.28
2018-04-22T04:01:18.156Z,14.34
2018-04-22T04:02:18.112Z,14.30
2018-04-22T04:03:18.070Z,14.30
2018-04-22T04:04:18.035Z,14.23
2018-04-22T04:05:17.987Z,14.34
2018-04-22T04:06:17.947Z,14.26
2018-04-22T04:07:17.903Z,14.33
2018-04-22T04:08:17.863Z,14.26
2018-04-22T04:09:17.822Z,14.33
2018-04-22T04:10:17.782Z,14.23
2018-04-22T04:11:17.736Z,14.26
2018-04-22T04:12:17.696Z,14.34
2018-04-22T04:13:17.657Z,14.31
2018-04-22T04:14:17.614Z,14.25
2018-04-22T04:15:17.570Z,14.28
2018-04-22T04:16:17.527Z,14.25
2018-04-22T04:17:17.486Z,14.20
2018-04-22T04:18:17.445Z,14.30
2018-04-22T04:19:17.468Z,14.31
2018-04-22T04:20:17.365Z,14.30
2018-04-22T04:21:17.322Z,14.33
2018-04-22T04:22:17.277Z,14.26
2018-04-22T04:23:17.235Z,14.31
2018-04-22T04:24:17.196Z,14.34
2018-04-22T04:25:17.154Z,14.31
2018-04-22T04:26:17.113Z,14.40
2018-04-22T04:27:17.069Z,14.40
2018-04-22T04:28:17.028Z,14.40
2018-04-22T04:29:16.984Z,14.36
2018-04-22T04:30:16.945Z,14.37
2018-04-22T04:31:16.903Z,14.38
2018-04-22T04:32:16.863Z,14.34
2018-04-22T04:33:16.819Z,14.33
2018-04-22T04:34:16.778Z,14.36
2018-04-22T04:35:16.734Z,14.34
2018-04-22T04:36:16.696Z,14.36
2018-04-22T04:37:16.657Z,14.37
2018-04-22T04:38:16.621Z,14.37
2018-04-22T04:39:16.568Z,14.31
2018-04-22T04:40:16.528Z,14.40
2018-04-22T04:41:16.483Z,14.37
2018-04-22T04:42:16.444Z,14.28
2018-04-22T04:43:16.404Z,14.37
2018-04-22T04:44:16.360Z,14.34
2018-04-22T04:45:16.314Z,14.30
2018-04-22T04:46:16.274Z,14.30
2018-04-22T04:47:16.237Z,14.26
2018-04-22T04:48:16.193Z,14.30
2018-04-22T04:49:16.151Z,14.38
2018-04-22T04:50:16.110Z,14.22
2018-04-22T04:51:16.069Z,14.28
2018-04-22T04:52:16.028Z,14.28
2018-04-22T04:53:15.979Z,14.26
2018-04-22T04:54:15.941Z,14.30
2018-04-22T04:55:15.901Z,14.28
2018-04-22T04:56:15.862Z,14.30
2018-04-22T04:57:15.816Z,14.31
2018-04-22T04:58:15.773Z,14.23
2018-04-22T04:59:15.731Z,14.33
2018-04-22T05:00:15.696Z,14.28
2018-04-22T05:01:15.652Z,14.30
2018-04-22T05:02:15.604Z,14.31
2018-04-22T05:03:15.562Z,14.26
2018-04-22T05:04:15.524Z,14.34
2018-04-22T05:05:15.478Z,14.26
2018-04-22T05:06:15.448Z,14.34
2018-04-22T05:07:15.399Z,14.25
2018-04-22T05:08:15.354Z,14.22
2018-04-22T05:09:15.317Z,14.26
2018-04-22T05:10:15.273Z,14.33
2018-04-22T05:11:15.231Z,14.20
2018-04-22T05:12:15.189Z,14.28
2018-04-22T05:13:15.148Z,14.23
2018-04-22T05:14:15.104Z,14.23
2018-04-22T05:15:15.066Z,14.31
2018-04-22T05:16:15.022Z,14.28
2018-04-22T05:17:14.981Z,14.25
2018-04-22T05:18:14.938Z,14.26
2018-04-22T05:19:14.897Z,14.23
2018-04-22T05:20:14.851Z,14.34
2018-04-22T05:21:14.820Z,14.28
2018-04-22T05:22:14.769Z,14.31
2018-04-22T05:23:14.728Z,14.28
2018-04-22T05:24:14.689Z,14.25
2018-04-22T05:25:14.644Z,14.33
2018-04-22T05:26:14.601Z,14.34
2018-04-22T05:27:14.567Z,14.34
2018-04-22T05:28:14.519Z,14.33
2018-04-22T05:29:14.480Z,14.34
2018-04-22T05:30:14.436Z,14.38
2018-04-22T05:31:14.409Z,14.36
2018-04-22T05:32:14.353Z,14.30
2018-04-22T05:33:14.309Z,14.40
2018-04-22T05:34:14.268Z,14.43
2018-04-22T05:35:14.226Z,14.43
2018-04-22T05:36:14.182Z,14.37
2018-04-22T05:37:14.143Z,14.48
2018-04-22T05:38:14.104Z,14.49
2018-04-22T05:39:14.062Z,14.48
2018-04-22T05:40:14.016Z,14.56
2018-04-22T05:41:13.975Z,14.44
2018-04-22T05:42:13.934Z,14.52
2018-04-22T05:43:13.892Z,14.48
2018-04-22T05:44:13.858Z,14.51
2018-04-22T05:45:13.808Z,14.53
2018-04-22T05:46:13.765Z,14.56
2018-04-22T05:47:13.728Z,14.55
2018-04-22T05:48:13.683Z,14.55
2018-04-22T05:49:13.641Z,14.59
2018-04-22T05:50:13.598Z,14.68
2018-04-22T05:51:13.558Z,14.62
2018-04-22T05:52:13.514Z,14.73
2018-04-22T05:53:13.476Z,14.73
2018-04-22T05:54:13.436Z,14.79
2018-04-22T05:55:13.395Z,14.78
2018-04-22T05:56:13.353Z,14.78
2018-04-22T05:57:13.306Z,14.81
2018-04-22T05:58:13.266Z,14.79
2018-04-22T05:59:13.225Z,14.77
2018-04-22T06:00:13.188Z,14.77
2018-04-22T06:01:13.142Z,14.71
2018-04-22T06:02:13.142Z,14.87
2018-04-22T06:03:13.057Z,14.90
2018-04-22T06:04:13.018Z,14.81
2018-04-22T06:05:12.976Z,14.90
2018-04-22T06:06:12.936Z,14.90
2018-04-22T06:07:12.897Z,15.00
2018-04-22T06:08:12.857Z,14.97
2018-04-22T06:09:12.811Z,14.97
2018-04-22T06:10:12.766Z,15.00
2018-04-22T06:11:12.730Z,15.04
2018-04-22T06:12:12.686Z,15.07
2018-04-22T06:13:12.641Z,15.14
2018-04-22T06:14:12.604Z,15.04
2018-04-22T06:15:12.560Z,15.22
2018-04-22T06:16:12.518Z,15.14
2018-04-22T06:17:12.490Z,15.25
2018-04-22T06:18:12.438Z,15.23
2018-04-22T06:19:12.398Z,15.26
2018-04-22T06:20:12.361Z,15.33
2018-04-22T06:21:12.310Z,15.36
2018-04-22T06:22:12.269Z,15.41
2018-04-22T06:23:12.228Z,15.41
2018-04-22T06:24:12.188Z,15.47
2018-04-22T06:25:12.148Z,15.48
2018-04-22T06:26:12.103Z,15.54
2018-04-22T06:27:12.067Z,15.60
2018-04-22T06:28:12.028Z,15.65
2018-04-22T06:29:11.978Z,15.67
2018-04-22T06:30:11.942Z,15.69
2018-04-22T06:31:11.896Z,15.66
2018-04-22T06:32:11.857Z,15.81
2018-04-22T06:33:11.823Z,15.72
2018-04-22T06:34:11.773Z,15.84
2018-04-22T06:35:11.738Z,15.90
2018-04-22T06:36:11.692Z,15.92
2018-04-22T06:37:11.648Z,16.03
2018-04-22T06:38:11.609Z,16.03
2018-04-22T06:39:11.568Z,16.16
2018-04-22T06:40:11.569Z,16.17
2018-04-22T06:41:11.486Z,16.22
2018-04-22T06:42:11.448Z,16.12
2018-04-22T06:43:11.407Z,16.28
2018-04-22T06:44:11.368Z,16.28
2018-04-22T06:45:11.324Z,16.36
2018-04-22T06:46:11.329Z,16.37
2018-04-22T06:47:11.240Z,16.46
2018-04-22T06:48:11.200Z,16.54
2018-04-22T06:49:11.161Z,16.50
2018-04-22T06:50:11.121Z,16.59
2018-04-22T06:51:11.078Z,16.55
2018-04-22T06:52:11.040Z,16.64
2018-04-22T06:53:10.996Z,16.77
2018-04-22T06:54:10.959Z,16.83
2018-04-22T06:55:10.914Z,16.86
2018-04-22T06:56:10.875Z,16.86
2018-04-22T06:57:10.834Z,16.94
2018-04-22T06:58:10.793Z,16.91
2018-04-22T06:59:10.751Z,16.98
2018-04-22T07:00:10.711Z,16.97
2018-04-22T07:01:10.671Z,17.01
2018-04-22T07:02:10.638Z,17.10
2018-04-22T07:03:10.589Z,17.17
2018-04-22T07:04:10.547Z,17.20
2018-04-22T07:05:10.506Z,17.20
2018-04-22T07:06:10.467Z,17.24
2018-04-22T07:07:10.427Z,17.27
2018-04-22T07:08:10.389Z,17.30
2018-04-22T07:09:10.346Z,17.27
2018-04-22T07:10:10.306Z,17.39
2018-04-22T07:11:10.267Z,17.42
2018-04-22T07:12:10.228Z,17.41
2018-04-22T07:13:10.184Z,17.46
2018-04-22T07:14:10.143Z,17.53
2018-04-22T07:15:10.104Z,17.56
2018-04-22T07:16:10.062Z,17.59
2018-04-22T07:17:10.023Z,17.68
2018-04-22T07:18:09.992Z,17.73
2018-04-22T07:19:09.953Z,17.71
2018-04-22T07:20:09.908Z,17.79
2018-04-22T07:21:09.867Z,17.79
2018-04-22T07:22:09.825Z,17.87
2018-04-22T07:23:09.787Z,17.95
2018-04-22T07:24:09.794Z,17.94
2018-04-22T07:25:09.704Z,18.02
2018-04-22T07:26:09.666Z,18.03
2018-04-22T07:27:09.630Z,17.98
2018-04-22T07:28:09.588Z,18.08
2018-04-22T07:29:09.541Z,18.18
2018-04-22T07:30:09.503Z,18.19
2018-04-22T07:31:09.462Z,18.27
2018-04-22T07:32:09.443Z,18.36
2018-04-22T07:33:09.382Z,18.41
2018-04-22T07:34:09.345Z,18.43
2018-04-22T07:35:09.308Z,18.42
2018-04-22T07:36:09.262Z,18.46
2018-04-22T07:37:09.222Z,18.57
2018-04-22T07:38:09.185Z,18.63
2018-04-22T07:39:09.148Z,18.60
2018-04-22T07:40:09.110Z,18.78
2018-04-22T07:41:09.070Z,18.79
2018-04-22T07:42:09.025Z,18.76
2018-04-22T07:43:08.992Z,18.71
2018-04-22T07:44:08.958Z,18.92
2018-04-22T07:45:08.906Z,18.88
2018-04-22T07:46:08.868Z,18.97
2018-04-22T07:47:08.829Z,19.11
2018-04-22T07:48:08.795Z,19.11
2018-04-22T07:49:08.750Z,19.23
2018-04-22T07:50:08.709Z,19.22
2018-04-22T07:51:08.675Z,19.32
2018-04-22T07:52:08.637Z,19.42
2018-04-22T07:53:08.592Z,19.45
2018-04-22T07:54:08.556Z,19.57
2018-04-22T07:55:08.513Z,19.56
2018-04-22T07:56:08.479Z,19.71
2018-04-22T07:57:08.436Z,19.70
2018-04-22T07:58:08.394Z,19.71
2018-04-22T07:59:08.357Z,19.85
2018-04-22T08:00:10.968Z,19.92
2018-04-22T08:01:08.277Z,19.92
2018-04-22T08:02:08.240Z,20.00
2018-04-22T08:03:08.198Z,20.12
2018-04-22T08:04:08.162Z,20.08
2018-04-22T08:05:08.124Z,20.26
2018-04-22T08:06:08.084Z,20.27
2018-04-22T08:07:08.046Z,20.26
2018-04-22T08:08:08.006Z,20.46
2018-04-22T08:09:07.966Z,20.42
2018-04-22T08:10:07.929Z,20.52
2018-04-22T08:11:07.890Z,20.66
2018-04-22T08:12:07.854Z,20.71
2018-04-22T08:13:07.811Z,20.85
2018-04-22T08:14:07.774Z,20.90
2018-04-22T08:15:07.736Z,20.95
2018-04-22T08:16:07.697Z,21.14
2018-04-22T08:17:07.657Z,21.19
2018-04-22T08:18:07.620Z,21.29
2018-04-22T08:19:07.583Z,21.33
2018-04-22T08:20:07.565Z,21.40
2018-04-22T08:21:07.505Z,21.58
2018-04-22T08:22:07.468Z,21.60
2018-04-22T08:23:07.437Z,21.65
2018-04-22T08:24:07.395Z,21.77
2018-04-22T08:25:07.353Z,21.89
2018-04-22T08:26:07.319Z,21.99
2018-04-22T08:27:07.291Z,21.99
2018-04-22T08:28:07.265Z,22.12
2018-04-22T08:29:07.207Z,22.10
2018-04-22T08:30:07.169Z,22.21
2018-04-22T08:31:07.127Z,22.26
2018-04-22T08:32:07.089Z,22.36
2018-04-22T08:33:07.056Z,22.40
2018-04-22T08:34:07.015Z,22.52
2018-04-22T08:35:06.979Z,22.51
2018-04-22T08:36:06.947Z,22.61
2018-04-22T08:37:06.899Z,22.70
2018-04-22T08:38:06.865Z,22.84
2018-04-22T08:39:06.829Z,22.91
2018-04-22T08:40:06.791Z,22.99
2018-04-22T08:41:06.748Z,23.06
2018-04-22T08:42:06.714Z,23.11
2018-04-22T08:43:06.676Z,23.16
2018-04-22T08:44:06.640Z,23.23
2018-04-22T08:45:06.600Z,23.40
2018-04-22T08:46:06.567Z,23.33
2018-04-22T08:47:06.525Z,23.42
2018-04-22T08:48:06.498Z,23.49
2018-04-22T08:49:06.455Z,23.59
2018-04-22T08:50:06.416Z,23.67
2018-04-22T08:51:06.386Z,23.63
2018-04-22T08:52:06.341Z,23.84
2018-04-22T08:53:06.308Z,23.85
2018-04-22T08:54:06.272Z,23.85
2018-04-22T08:55:06.238Z,23.94
2018-04-22T08:56:06.196Z,23.99
2018-04-22T08:57:06.161Z,24.01
2018-04-22T08:58:06.122Z,24.10
2018-04-22T08:59:06.085Z,24.09
2018-04-22T09:00:06.050Z,24.22
2018-04-22T09:01:06.033Z,24.26
2018-04-22T09:02:06.028Z,24.31
2018-04-22T09:03:05.944Z,24.32
2018-04-22T09:04:05.904Z,24.38
2018-04-22T09:05:05.865Z,24.37
2018-04-22T09:06:05.893Z,24.53
2018-04-22T09:07:05.797Z,24.51
2018-04-22T09:08:05.759Z,24.62
2018-04-22T09:09:05.729Z,24.69
2018-04-22T09:10:05.688Z,24.78
2018-04-22T09:11:05.651Z,24.85
2018-04-22T09:12:05.610Z,24.93
2018-04-22T09:13:05.576Z,24.92
2018-04-22T09:14:05.543Z,24.92
2018-04-22T09:15:05.504Z,25.06
2018-04-22T09:16:05.467Z,25.19
2018-04-22T09:17:05.432Z,25.26
2018-04-22T09:18:05.395Z,25.36
2018-04-22T09:19:05.364Z,25.49
2018-04-22T09:20:05.324Z,25.55
2018-04-22T09:21:05.290Z,25.66
2018-04-22T09:22:05.258Z,25.73
2018-04-22T09:23:05.215Z,25.86
2018-04-22T09:24:05.180Z,25.92
2018-04-22T09:25:05.149Z,26.01
2018-04-22T09:26:05.137Z,26.18
2018-04-22T09:27:05.074Z,26.15
2018-04-22T09:28:05.043Z,26.22
2018-04-22T09:29:05.003Z,26.33
2018-04-22T09:30:04.970Z,26.44
2018-04-22T09:31:04.932Z,26.49
2018-04-22T09:32:04.897Z,26.60
2018-04-22T09:33:04.878Z,26.67
2018-04-22T09:34:04.827Z,26.73
2018-04-22T09:35:04.793Z,26.85
2018-04-22T09:36:04.790Z,26.91
2018-04-22T09:37:04.720Z,26.97
2018-04-22T09:38:04.683Z,26.97
2018-04-22T09:39:04.655Z,27.03
2018-04-22T09:40:04.617Z,27.18
2018-04-22T09:41:04.581Z,27.16
2018-04-22T09:42:04.547Z,27.25
2018-04-22T09:43:04.516Z,27.37
2018-04-22T09:44:04.478Z,27.40
2018-04-22T09:45:04.448Z,27.43
2018-04-22T09:46:04.407Z,27.50
2018-04-22T09:47:04.373Z,27.60
2018-04-22T09:48:04.338Z,27.71
2018-04-22T09:49:04.307Z,27.79
2018-04-22T09:50:04.271Z,27.82
2018-04-22T09:51:04.235Z,27.93
2018-04-22T09:52:04.201Z,27.90
2018-04-22T09:53:04.165Z,27.97
2018-04-22T09:54:04.130Z,28.01
2018-04-22T09:55:04.098Z,28.23
2018-04-22T09:56:04.065Z,28.22
2018-04-22T09:57:04.032Z,28.27
2018-04-22T09:58:03.995Z,28.37
2018-04-22T09:59:03.962Z,28.43
2018-04-22T10:00:03.933Z,28.53
2018-04-22T10:01:03.892Z,28.60
2018-04-22T10:02:03.858Z,28.60
2018-04-22T10:03:03.827Z,28.74
2018-04-22T10:04:03.798Z,28.78
2018-04-22T10:05:03.764Z,28.80
2018-04-22T10:06:03.722Z,28.80
2018-04-22T10:07:03.689Z,28.82
2018-04-22T10:08:03.655Z,28.87
2018-04-22T10:09:03.623Z,28.97
2018-04-22T10:10:03.590Z,29.10
2018-04-22T10:11:03.557Z,29.07
2018-04-22T10:12:03.525Z,29.12
2018-04-22T10:13:03.495Z,29.07
2018-04-22T10:14:03.454Z,29.06
2018-04-22T10:15:03.421Z,29.12
2018-04-22T10:16:03.393Z,29.20
2018-04-22T10:17:03.357Z,29.16
2018-04-22T10:18:03.319Z,29.30
2018-04-22T10:19:03.287Z,29.21
2018-04-22T10:20:03.279Z,29.27
2018-04-22T10:21:03.219Z,29.32
2018-04-22T10:22:03.186Z,29.37
2018-04-22T10:23:03.158Z,29.39
2018-04-22T10:24:03.124Z,29.31
2018-04-22T10:25:03.087Z,29.30
2018-04-22T10:26:03.064Z,29.31
2018-04-22T10:27:03.020Z,29.20
2018-04-22T10:28:02.994Z,29.21
2018-04-22T10:29:02.960Z,29.32
2018-04-22T10:30:02.922Z,29.32
2018-04-22T10:31:02.888Z,29.31
2018-04-22T10:32:02.856Z,29.16
2018-04-22T10:33:02.823Z,29.21
2018-04-22T10:34:02.789Z,29.21
2018-04-22T10:35:02.758Z,29.15
2018-04-22T10:36:02.755Z,29.16
2018-04-22T10:37:02.691Z,29.27
2018-04-22T10:38:02.653Z,29.22
2018-04-22T10:39:02.622Z,29.32
2018-04-22T10:40:02.623Z,29.34
2018-04-22T10:41:02.559Z,29.44
2018-04-22T10:42:02.550Z,29.37
2018-04-22T10:43:02.493Z,29.47
2018-04-22T10:44:02.461Z,29.47
2018-04-22T10:45:02.424Z,29.43
2018-04-22T10:46:02.393Z,29.43
2018-04-22T10:47:02.361Z,29.44
2018-04-22T10:48:02.326Z,29.49
2018-04-22T10:49:02.301Z,29.50
2018-04-22T10:50:02.254Z,29.55
2018-04-22T10:51:02.226Z,29.57
2018-04-22T10:52:02.193Z,29.62
2018-04-22T10:53:02.159Z,29.73
2018-04-22T10:54:02.127Z,29.76
2018-04-22T10:55:02.090Z,29.83
2018-04-22T10:56:02.063Z,29.79
2018-04-22T10:57:02.023Z,29.80
2018-04-22T10:58:02.087Z,29.89
2018-04-22T10:59:01.960Z,29.76
2018-04-22T11:00:01.931Z,29.74
2018-04-22T11:01:01.896Z,29.87
2018-04-22T11:02:01.924Z,29.83
2018-04-22T11:03:01.833Z,29.87
2018-04-22T11:04:01.793Z,29.86
2018-04-22T11:05:01.769Z,29.95
2018-04-22T11:06:01.732Z,29.98
2018-04-22T11:07:01.698Z,29.98
2018-04-22T11:08:01.667Z,29.94
2018-04-22T11:09:01.631Z,29.92
2018-04-22T11:10:01.606Z,30.01
2018-04-22T11:11:01.566Z,30.11
2018-04-22T11:12:01.534Z,30.02
2018-04-22T11:13:01.501Z,30.13
2018-04-22T11:14:01.465Z,30.10
2018-04-22T11:15:01.441Z,30.14
2018-04-22T11:16:01.402Z,30.03
2018-04-22T11:17:01.370Z,30.11
2018-04-22T11:18:01.337Z,29.98
2018-04-22T11:19:01.308Z,29.90
2018-04-22T11:20:01.280Z,29.81
2018-04-22T11:21:01.236Z,29.69
2018-04-22T11:22:01.274Z,29.69
2018-04-22T11:23:01.173Z,29.61
2018-04-22T11:24:01.140Z,30.11
2018-04-22T11:25:01.111Z,30.46
2018-04-22T11:26:01.083Z,30.43
2018-04-22T11:27:01.067Z,30.24
2018-04-22T11:29:00.979Z,30.13
2018-04-22T11:30:00.948Z,29.99
2018-04-22T11:31:00.914Z,30.18
2018-04-22T11:32:00.882Z,30.18
2018-04-22T11:33:00.853Z,30.20
2018-04-22T11:34:00.817Z,30.24
2018-04-22T11:35:00.788Z,30.48
2018-04-22T11:36:00.756Z,30.44
2018-04-22T11:37:00.720Z,30.65
2018-04-22T11:38:00.688Z,30.98
2018-04-22T11:39:00.749Z,31.13
2018-04-22T11:40:00.626Z,31.15
2018-04-22T11:41:00.591Z,31.25
2018-04-22T11:42:00.624Z,31.36
2018-04-22T11:43:00.551Z,31.36
2018-04-22T11:44:00.496Z,31.35
2018-04-22T11:45:00.465Z,31.37
2018-04-22T11:46:00.456Z,31.42
2018-04-22T11:47:00.402Z,31.48
2018-04-22T11:48:00.374Z,31.37
2018-04-22T11:49:00.339Z,31.29
2018-04-22T11:50:00.316Z,31.20
2018-04-22T11:51:00.290Z,31.17
2018-04-22T11:52:00.255Z,31.18
2018-04-22T11:53:00.216Z,31.23
2018-04-22T11:54:00.195Z,31.35
2018-04-22T11:55:00.155Z,31.39
2018-04-22T11:56:00.125Z,31.55
2018-04-22T11:57:00.095Z,31.72
2018-04-22T11:58:00.068Z,31.73
2018-04-22T11:59:00.037Z,31.64
2018-04-22T12:00:00.059Z,31.51
2018-04-22T12:00:59.990Z,31.52
2018-04-22T12:01:59.955Z,31.54
2018-04-22T12:02:59.910Z,31.54
2018-04-22T12:03:59.885Z,31.52
2018-04-22T12:04:59.899Z,31.66
2018-04-22T12:05:59.855Z,31.85
2018-04-22T12:06:59.904Z,31.98
2018-04-22T12:07:59.760Z,32.11
2018-04-22T12:08:59.729Z,32.22
2018-04-22T12:09:59.701Z,32.26
2018-04-22T12:10:59.667Z,32.35
2018-04-22T12:11:59.651Z,32.39
2018-04-22T12:12:59.611Z,31.89
2018-04-22T12:13:59.577Z,31.70
2018-04-22T12:14:59.549Z,31.87
2018-04-22T12:15:59.533Z,31.97
2018-04-22T12:16:59.488Z,32.07
2018-04-22T12:17:59.469Z,32.11
2018-04-22T12:18:59.452Z,32.24
2018-04-22T12:19:59.400Z,32.20
2018-04-22T12:20:59.380Z,32.23
2018-04-22T12:21:59.340Z,32.22
2018-04-22T12:22:59.349Z,32.07
2018-04-22T12:23:59.300Z,31.85
2018-04-22T12:24:59.252Z,31.97
2018-04-22T12:26:59.195Z,31.90
2018-04-22T12:28:59.132Z,31.55
2018-04-22T12:29:59.107Z,31.42
2018-04-22T12:30:59.075Z,31.28
2018-04-22T12:31:59.044Z,31.11
2018-04-22T12:32:59.015Z,30.91
2018-04-22T12:33:58.984Z,30.63
2018-04-22T12:34:58.954Z,30.61
2018-04-22T12:35:58.960Z,30.32
2018-04-22T12:36:58.936Z,30.26
2018-04-22T12:37:58.861Z,30.11
2018-04-22T12:38:58.832Z,29.96
2018-04-22T12:39:58.802Z,29.89
2018-04-22T12:40:58.768Z,29.73
2018-04-22T12:41:58.742Z,29.62
2018-04-22T12:42:58.710Z,29.50
2018-04-22T12:43:58.680Z,29.32
2018-04-22T12:44:58.657Z,29.21
2018-04-22T12:45:58.612Z,29.13
2018-04-22T12:46:58.587Z,29.06
2018-04-22T12:47:58.556Z,29.05
2018-04-22T12:48:58.523Z,28.92
2018-04-22T12:49:58.487Z,28.83
2018-04-22T12:50:58.453Z,28.80
2018-04-22T12:51:58.460Z,28.72
2018-04-22T12:52:58.428Z,28.74
2018-04-22T12:53:58.398Z,28.71
2018-04-22T12:54:58.331Z,28.75